Airfield :
LOGIN :

Register | Disclaimer

   EN    FR    IT 

 










Legend :    VFR   Marginal VFR   IFR   Intensive IFR   Very Intensive IFR
Visi :
Ceiling :
>= 8 km
>= 3000ft
5 to 8 km
1000 to 3000 ft
1500m to 5 km
500 to 1000 ft
800 to 1500m
200 to 500 ft
< 800m
< 200 ft
Symbols :   Thunderstorms  Fog  Heavy snow  Heavy precipitations  Wind > 20 kt
SIGMETs :     Misc.  Thunderstorms  Icing  Turbulence  Mountain Waves  Volcanic Ashes






- Airport Elevation : 1161 ft
- IATA code : RJL


LELO - Logroño-Agoncillo

CURRENT METAR :
  • 171230Z 27012KT 230V290 9999 -RA BKN040 09/06 Q1009

EXPIRED METARs :
  • 171200Z 27010KT 9999 SCT050 09/06 Q1009
  • 171130Z 28010KT 9999 SCT050 09/05 Q1009
  • 171100Z 27010KT 240V310 9999 BKN044 09/06 Q1010
  • 171030Z 28011KT 9999 BKN044 08/05 Q1011
  • 171000Z 26010KT 9999 -RA BKN048 08/05 Q1011

TAF TAF LELO
Valid from the 17 at 12:00 until the 17 at 21:00 UTC


171100Z 1712/1721 27012KT 9999 BKN040
PROB30
TEMPO 1714/1717 27015G25KT
PROB40
TEMPO 1712/1721 4900 RA BR BKN020



MET'MAP, your aeronautical weather chart ! - Copyright ORBIFLY December 2007 - Disclaimer

ORBIFLY MET'MAP TEAM :

Programming & Development : Alexandra Zaïnal
Concept & Development : Baudouin d'Aumeries
Co-Development & Prog : Marc-Olivier Méhu
Technical & hardware support : Manuel Goepfert

Contact : metmap@orbifly.com




SOURCES & CREDITS :

   NOAA